Time;durP1;ratioP1;P1;durP2;ratioP2;P2;SDS_P1;SDS_P2;PMS_P1;PMS_P2;Temp;Humidity;BMP_temperature;BMP_pressure;BME280_temperature;BME280_humidity;BME280_pressure;Samples;Min_cycle;Max_cycle;Signal;HPM_P1;HPM_P2
2021/06/03 00:00:31;;;;;;;4.33;3.07;;;20.70;99.90;;;;;;5073801;28;20205;-52
2021/06/03 00:02:57;;;;;;;6.80;3.30;;;20.70;99.90;;;;;;5073251;28;20216;-55
2021/06/03 00:05:26;;;;;;;4.83;3.13;;;20.70;99.90;;;;;;5073586;28;20224;-54
2021/06/03 00:07:54;;;;;;;3.87;2.70;;;20.60;99.90;;;;;;5073500;28;20259;-57
2021/06/03 00:10:24;;;;;;;4.90;2.97;;;20.60;99.90;;;;;;5073321;28;20201;-54
2021/06/03 00:12:50;;;;;;;3.27;2.97;;;20.60;99.90;;;;;;5073352;28;20205;-56
2021/06/03 00:15:16;;;;;;;7.20;2.80;;;20.60;99.90;;;;;;5073151;28;20883;-54
2021/06/03 00:17:43;;;;;;;3.17;2.80;;;20.60;99.90;;;;;;5073002;28;20205;-56
2021/06/03 00:20:12;;;;;;;4.13;2.80;;;20.60;99.90;;;;;;5072918;28;20620;-57
2021/06/03 00:22:38;;;;;;;3.93;3.00;;;20.50;99.90;;;;;;5073218;28;20688;-57
2021/06/03 00:25:07;;;;;;;3.40;3.07;;;20.50;99.90;;;;;;5073133;28;20201;-58
2021/06/03 00:27:33;;;;;;;4.47;3.10;;;20.50;99.90;;;;;;5073261;28;20623;-52
2021/06/03 00:30:00;;;;;;;3.53;3.23;;;20.40;99.90;;;;;;5072675;28;20205;-50
2021/06/03 00:32:26;;;;;;;3.43;3.00;;;20.40;99.90;;;;;;5073100;28;20684;-53
2021/06/03 00:34:52;;;;;;;4.37;3.10;;;20.40;99.90;;;;;;5073036;28;20229;-50
2021/06/03 00:37:18;;;;;;;6.13;2.87;;;20.40;99.90;;;;;;5072938;28;20229;-53
2021/06/03 00:39:44;;;;;;;4.30;2.73;;;20.40;99.90;;;;;;5072956;28;20256;-55
2021/06/03 00:42:12;;;;;;;3.27;2.83;;;20.40;99.90;;;;;;5072827;28;20209;-52
2021/06/03 00:44:38;;;;;;;5.27;3.00;;;20.40;99.90;;;;;;5072558;28;20227;-55
2021/06/03 00:47:04;;;;;;;4.00;3.20;;;20.40;99.90;;;;;;5072734;28;20225;-55
2021/06/03 00:49:31;;;;;;;4.80;3.00;;;20.40;99.90;;;;;;5072819;28;20205;-52
2021/06/03 00:51:57;;;;;;;5.03;3.07;;;20.40;99.90;;;;;;5072622;28;20205;-54
2021/06/03 00:54:24;;;;;;;5.73;3.10;;;20.40;99.90;;;;;;5072514;28;20231;-56
2021/06/03 00:56:50;;;;;;;4.47;3.20;;;20.40;99.90;;;;;;5072439;28;20286;-50
2021/06/03 00:59:17;;;;;;;5.00;3.13;;;20.40;99.90;;;;;;5072463;28;20220;-55
2021/06/03 01:01:44;;;;;;;3.47;3.00;;;20.30;99.90;;;;;;5072081;28;20678;-51
2021/06/03 01:04:10;;;;;;;4.13;3.20;;;20.40;99.90;;;;;;5072520;28;20201;-56
2021/06/03 01:06:37;;;;;;;4.27;3.20;;;20.40;99.90;;;;;;5072200;28;20221;-52
2021/06/03 01:09:07;;;;;;;5.77;3.50;;;20.30;99.90;;;;;;5072331;28;20213;-52
2021/06/03 01:11:40;;;;;;;4.10;2.87;;;20.20;99.90;;;;;;5072006;28;20792;-58
2021/06/03 01:14:12;;;;;;;4.97;3.13;;;20.20;99.90;;;;;;5072573;28;20295;-55
2021/06/03 01:16:40;;;;;;;3.27;2.87;;;20.20;99.90;;;;;;5072327;28;20233;-53
2021/06/03 01:19:11;;;;;;;7.13;3.27;;;20.10;99.90;;;;;;5072279;28;20205;-56
2021/06/03 01:21:46;;;;;;;3.53;3.20;;;20.10;99.90;;;;;;5072059;28;20201;-56
2021/06/03 01:24:23;;;;;;;4.50;3.30;;;20.10;99.90;;;;;;5071989;28;20204;-57
2021/06/03 01:26:50;;;;;;;5.60;3.57;;;20.10;99.90;;;;;;5072284;28;20229;-55
2021/06/03 01:29:18;;;;;;;5.30;3.60;;;20.00;99.90;;;;;;5071704;28;20668;-54
2021/06/03 01:31:46;;;;;;;5.10;3.27;;;20.00;99.90;;;;;;5071597;28;20205;-57
2021/06/03 01:34:13;;;;;;;3.80;3.43;;;20.00;99.90;;;;;;5071981;28;20266;-55
2021/06/03 01:36:40;;;;;;;5.10;3.23;;;19.90;99.90;;;;;;5071664;28;20582;-57
2021/06/03 01:39:09;;;;;;;4.00;3.47;;;19.80;99.90;;;;;;5072044;28;20213;-52
2021/06/03 01:41:37;;;;;;;6.00;3.33;;;19.80;99.90;;;;;;5071948;28;20207;-56
2021/06/03 01:44:05;;;;;;;5.27;3.40;;;19.80;99.90;;;;;;5071946;28;20205;-56
2021/06/03 01:46:32;;;;;;;5.00;3.60;;;19.80;99.90;;;;;;5071856;28;20221;-57
2021/06/03 01:48:58;;;;;;;3.80;3.30;;;19.80;99.90;;;;;;5071748;28;20690;-57
2021/06/03 01:51:25;;;;;;;4.47;3.40;;;19.70;99.90;;;;;;5071602;28;20629;-58
2021/06/03 01:53:52;;;;;;;4.83;3.60;;;19.60;99.90;;;;;;5071751;28;20212;-56
2021/06/03 01:56:19;;;;;;;4.83;3.97;;;19.60;99.90;;;;;;5071835;28;20294;-54
2021/06/03 01:58:48;;;;;;;4.33;3.60;;;19.60;99.90;;;;;;5071951;28;20228;-51
2021/06/03 02:01:15;;;;;;;4.60;3.57;;;19.60;99.90;;;;;;5071399;28;20201;-55
2021/06/03 02:03:42;;;;;;;5.13;3.40;;;19.50;99.90;;;;;;5071559;28;20210;-56
2021/06/03 02:06:08;;;;;;;4.73;3.53;;;19.50;99.90;;;;;;5071408;28;20629;-55
2021/06/03 02:08:34;;;;;;;9.90;4.13;;;19.40;99.90;;;;;;5071657;28;20201;-53
2021/06/03 02:11:01;;;;;;;7.03;4.13;;;19.40;99.90;;;;;;5071738;28;20224;-53
2021/06/03 02:13:31;;;;;;;3.97;3.60;;;19.30;99.90;;;;;;5071666;28;20252;-55
2021/06/03 02:16:03;;;;;;;7.47;3.70;;;19.30;99.90;;;;;;5071541;28;20289;-54
2021/06/03 02:18:35;;;;;;;5.00;3.70;;;19.20;99.90;;;;;;5071733;28;20575;-56
2021/06/03 02:21:03;;;;;;;5.03;3.63;;;19.20;99.90;;;;;;5071524;28;20262;-58
2021/06/03 02:23:30;;;;;;;5.73;3.83;;;19.10;99.90;;;;;;5071735;28;20212;-56
2021/06/03 02:25:58;;;;;;;6.43;3.60;;;19.00;99.90;;;;;;5072001;28;20277;-56
2021/06/03 02:28:25;;;;;;;6.23;3.97;;;19.00;99.90;;;;;;5071548;28;20205;-52
2021/06/03 02:30:51;;;;;;;5.03;3.80;;;19.00;99.90;;;;;;5071249;28;20209;-52
2021/06/03 02:33:19;;;;;;;5.90;3.70;;;19.00;99.90;;;;;;5071570;28;20272;-53
2021/06/03 02:35:46;;;;;;;4.10;3.67;;;19.00;99.90;;;;;;5071264;28;20717;-53
2021/06/03 02:38:14;;;;;;;6.00;3.77;;;19.10;99.90;;;;;;5071438;28;20218;-56
2021/06/03 02:40:42;;;;;;;4.30;3.50;;;19.10;99.90;;;;;;5071600;28;20209;-53
2021/06/03 02:43:08;;;;;;;7.30;3.73;;;19.10;99.90;;;;;;5074994;28;20205;-52
2021/06/03 02:45:35;;;;;;;6.00;3.53;;;19.10;99.90;;;;;;5074959;28;20223;-50
2021/06/03 02:48:02;;;;;;;4.20;3.20;;;19.10;99.90;;;;;;5077219;28;20211;-56
2021/06/03 02:50:30;;;;;;;4.60;3.80;;;19.10;99.90;;;;;;5079154;28;20205;-57
2021/06/03 02:52:57;;;;;;;6.23;3.63;;;19.10;99.90;;;;;;5076331;28;20382;-54
2021/06/03 02:55:25;;;;;;;3.73;3.30;;;19.10;99.90;;;;;;5075003;28;20240;-50
2021/06/03 02:57:52;;;;;;;4.97;3.63;;;19.20;99.90;;;;;;5077719;28;20213;-57
2021/06/03 03:00:21;;;;;;;5.50;3.40;;;19.20;99.90;;;;;;5080559;28;20213;-56
2021/06/03 03:02:48;;;;;;;4.37;3.30;;;19.20;99.90;;;;;;5080405;28;20582;-56
2021/06/03 03:05:15;;;;;;;4.60;3.40;;;19.20;99.90;;;;;;5075933;28;20551;-56
2021/06/03 03:07:43;;;;;;;5.47;3.40;;;19.10;99.90;;;;;;5074744;28;20221;-53
2021/06/03 03:10:12;;;;;;;10.27;3.90;;;19.10;99.90;;;;;;5074533;28;20220;-55
2021/06/03 03:12:39;;;;;;;4.03;3.40;;;19.10;99.90;;;;;;5074858;28;20507;-53
2021/06/03 03:15:07;;;;;;;5.17;3.27;;;19.10;99.90;;;;;;5074576;28;20587;-53
2021/06/03 03:17:34;;;;;;;5.17;3.73;;;19.10;99.90;;;;;;5074617;28;20731;-53
2021/06/03 03:20:00;;;;;;;6.03;3.93;;;19.10;99.90;;;;;;5074631;28;20208;-54
2021/06/03 03:22:27;;;;;;;4.17;3.77;;;19.10;99.90;;;;;;5074729;28;20213;-56
2021/06/03 03:24:54;;;;;;;5.63;3.40;;;19.00;99.90;;;;;;5074690;28;20216;-57
2021/06/03 03:27:20;;;;;;;3.80;3.33;;;19.00;99.90;;;;;;5074172;28;20254;-51
2021/06/03 03:29:48;;;;;;;4.43;3.53;;;19.00;99.90;;;;;;5074480;28;20209;-52
2021/06/03 03:32:14;;;;;;;5.50;3.50;;;19.00;99.90;;;;;;5074079;28;20205;-51
2021/06/03 03:34:40;;;;;;;4.00;3.50;;;18.90;99.90;;;;;;5073972;28;20223;-51
2021/06/03 03:37:07;;;;;;;4.47;3.10;;;18.80;99.90;;;;;;5073892;28;20236;-50
2021/06/03 03:39:33;;;;;;;3.70;3.30;;;18.80;99.90;;;;;;5073695;28;20208;-55
2021/06/03 03:42:00;;;;;;;5.93;3.53;;;18.80;99.90;;;;;;5074030;28;20209;-54
2021/06/03 03:44:27;;;;;;;5.17;3.50;;;18.70;99.90;;;;;;5074181;28;20213;-53
2021/06/03 03:46:53;;;;;;;3.63;3.00;;;18.70;99.90;;;;;;5073800;28;20311;-54
2021/06/03 03:49:22;;;;;;;5.67;3.50;;;18.60;99.90;;;;;;5073895;28;20284;-51
2021/06/03 03:51:48;;;;;;;3.73;3.33;;;18.70;99.90;;;;;;5073643;28;20201;-52
2021/06/03 03:54:14;;;;;;;6.20;3.37;;;18.60;99.90;;;;;;5072938;28;20262;-53
2021/06/03 03:56:40;;;;;;;5.03;3.43;;;18.60;99.90;;;;;;5073849;28;20234;-54
2021/06/03 03:59:08;;;;;;;4.70;3.53;;;18.60;99.90;;;;;;5073778;28;20209;-50
2021/06/03 04:01:34;;;;;;;3.67;3.13;;;18.50;99.90;;;;;;5073630;28;20208;-52
2021/06/03 04:04:00;;;;;;;4.97;3.43;;;18.50;99.90;;;;;;5073512;28;20209;-54
2021/06/03 04:06:26;;;;;;;5.00;3.67;;;18.50;99.90;;;;;;5073376;28;20225;-51
2021/06/03 04:08:53;;;;;;;3.57;3.07;;;18.50;99.90;;;;;;5073328;28;20227;-54
2021/06/03 04:11:22;;;;;;;5.10;3.30;;;18.50;99.90;;;;;;5073579;28;20221;-51
2021/06/03 04:13:49;;;;;;;4.20;3.10;;;18.50;99.90;;;;;;5073454;28;20205;-53
2021/06/03 04:16:16;;;;;;;3.97;3.23;;;18.40;99.90;;;;;;5073761;28;20225;-50
2021/06/03 04:18:42;;;;;;;3.73;3.20;;;18.50;99.90;;;;;;5073491;28;20583;-55
2021/06/03 04:21:08;;;;;;;3.83;3.30;;;18.50;99.90;;;;;;5073037;28;20283;-54
2021/06/03 04:23:35;;;;;;;3.90;3.27;;;18.50;99.90;;;;;;5073245;28;20205;-53
2021/06/03 04:26:01;;;;;;;3.60;3.23;;;18.50;99.90;;;;;;5073322;28;20224;-53
2021/06/03 04:28:27;;;;;;;3.57;3.27;;;18.50;99.90;;;;;;5073418;28;20213;-56
2021/06/03 04:30:53;;;;;;;4.87;3.13;;;18.40;99.90;;;;;;5072908;28;20212;-52
2021/06/03 04:33:22;;;;;;;3.33;2.90;;;18.40;99.90;;;;;;5073036;28;20201;-52
2021/06/03 04:35:48;;;;;;;5.50;3.47;;;18.40;99.90;;;;;;5072483;28;20229;-51
2021/06/03 04:38:15;;;;;;;3.83;3.07;;;18.40;99.90;;;;;;5073286;28;20202;-56
2021/06/03 04:40:41;;;;;;;5.70;3.20;;;18.50;99.90;;;;;;5073003;28;20712;-57
2021/06/03 04:43:07;;;;;;;7.27;2.90;;;18.50;99.90;;;;;;5073383;28;20208;-56
2021/06/03 04:45:36;;;;;;;4.53;3.33;;;18.60;99.90;;;;;;5072726;28;20221;-53
2021/06/03 04:48:03;;;;;;;4.03;3.13;;;18.70;99.90;;;;;;5072937;28;20205;-55
2021/06/03 04:50:31;;;;;;;3.13;2.60;;;18.80;99.90;;;;;;5072364;28;20205;-52
2021/06/03 04:52:57;;;;;;;3.27;2.97;;;18.90;99.90;;;;;;5072752;28;20201;-55
2021/06/03 04:55:25;;;;;;;5.13;2.77;;;19.00;99.90;;;;;;5072633;28;20233;-56
2021/06/03 04:57:52;;;;;;;2.97;2.53;;;19.00;99.90;;;;;;5072792;28;20201;-56
2021/06/03 05:00:22;;;;;;;3.10;2.80;;;19.10;99.90;;;;;;5072617;28;20201;-54
2021/06/03 05:02:48;;;;;;;4.27;3.00;;;19.10;99.90;;;;;;5072475;28;20208;-54
2021/06/03 05:05:15;;;;;;;3.07;2.77;;;19.20;99.90;;;;;;5071532;28;20197;-56
2021/06/03 05:07:44;;;;;;;3.97;2.87;;;19.20;99.90;;;;;;5072710;28;20432;-55
2021/06/03 05:10:11;;;;;;;3.20;2.90;;;19.20;99.90;;;;;;5072520;28;20218;-54
2021/06/03 05:12:37;;;;;;;3.73;2.80;;;19.20;99.90;;;;;;5072458;28;20203;-56
2021/06/03 05:15:06;;;;;;;3.20;2.90;;;19.20;99.90;;;;;;5072394;28;20212;-53
2021/06/03 05:17:32;;;;;;;3.03;2.67;;;19.20;99.90;;;;;;5072377;28;20215;-54
2021/06/03 05:19:59;;;;;;;4.93;3.00;;;19.30;99.90;;;;;;5072105;28;20754;-53
2021/06/03 05:22:25;;;;;;;3.90;3.23;;;19.30;99.90;;;;;;5072497;28;20572;-55
2021/06/03 05:24:53;;;;;;;3.47;2.90;;;19.30;99.90;;;;;;5072439;28;20204;-54
2021/06/03 05:27:19;;;;;;;6.27;3.00;;;19.30;99.90;;;;;;5072221;28;20224;-53
2021/06/03 05:29:45;;;;;;;3.70;3.13;;;19.40;99.90;;;;;;5072153;28;20578;-53
2021/06/03 05:32:11;;;;;;;4.80;2.63;;;19.30;99.90;;;;;;5071947;28;20208;-51
2021/06/03 05:34:38;;;;;;;3.23;2.93;;;19.40;99.90;;;;;;5072158;28;20669;-52
2021/06/03 05:37:04;;;;;;;4.20;3.30;;;19.40;99.90;;;;;;5072229;28;20228;-51
2021/06/03 05:39:31;;;;;;;5.17;3.30;;;19.60;99.90;;;;;;5072068;28;20201;-54
2021/06/03 05:41:58;;;;;;;3.17;2.73;;;19.60;99.90;;;;;;5071909;28;20209;-52
2021/06/03 05:44:25;;;;;;;3.83;2.57;;;19.80;99.90;;;;;;5071887;28;20730;-52
2021/06/03 05:46:51;;;;;;;4.10;2.60;;;19.90;99.90;;;;;;5071949;28;20236;-57
2021/06/03 05:49:17;;;;;;;3.30;2.60;;;20.00;99.90;;;;;;5072273;28;20201;-52
2021/06/03 05:51:44;;;;;;;3.90;2.80;;;20.10;99.90;;;;;;5071673;28;20209;-53
2021/06/03 05:54:11;;;;;;;6.23;3.10;;;20.30;99.90;;;;;;5072165;28;20633;-51
2021/06/03 05:56:38;;;;;;;5.83;2.90;;;20.50;99.90;;;;;;5071635;28;20596;-52
2021/06/03 05:59:06;;;;;;;5.73;2.97;;;20.70;99.90;;;;;;5071854;28;20580;-52
2021/06/03 06:01:33;;;;;;;4.93;3.10;;;20.80;99.90;;;;;;5071807;28;20213;-54
2021/06/03 06:04:13;;;;;;;3.87;2.73;;;20.90;99.90;;;;;;5071955;28;20204;-52
2021/06/03 06:06:39;;;;;;;4.70;4.20;;;21.00;99.90;;;;;;5071698;28;20243;-53
2021/06/03 06:09:07;;;;;;;4.43;2.83;;;21.20;99.90;;;;;;5071943;28;20205;-57
2021/06/03 06:11:36;;;;;;;4.27;2.93;;;21.40;99.90;;;;;;5071537;28;20209;-56
2021/06/03 06:14:03;;;;;;;5.73;2.87;;;21.40;99.90;;;;;;5071626;28;20213;-55
2021/06/03 06:16:31;;;;;;;4.83;3.03;;;21.60;99.90;;;;;;5073134;28;20235;-53
2021/06/03 06:18:57;;;;;;;3.57;2.50;;;21.60;99.90;;;;;;5075609;28;20209;-53
2021/06/03 06:21:24;;;;;;;4.33;3.20;;;21.50;99.90;;;;;;5075518;28;20205;-59
2021/06/03 06:23:51;;;;;;;7.40;3.20;;;21.40;99.90;;;;;;5075762;28;20584;-56
2021/06/03 06:26:18;;;;;;;4.57;3.27;;;21.40;99.90;;;;;;5075317;28;20232;-52
2021/06/03 06:28:44;;;;;;;6.10;3.13;;;21.40;99.90;;;;;;5075613;28;20204;-51
2021/06/03 06:31:12;;;;;;;5.43;3.47;;;21.50;99.90;;;;;;5075515;28;20262;-51
2021/06/03 06:33:39;;;;;;;5.63;3.37;;;21.60;99.90;;;;;;5075351;28;20673;-53
2021/06/03 06:36:07;;;;;;;4.47;3.70;;;21.60;99.90;;;;;;5075252;28;20229;-56
2021/06/03 06:38:34;;;;;;;5.77;3.77;;;21.60;99.90;;;;;;5075271;28;20628;-53
2021/06/03 06:41:00;;;;;;;4.37;3.57;;;21.60;99.90;;;;;;5075009;28;20594;-57
2021/06/03 06:43:26;;;;;;;4.23;3.20;;;21.60;99.90;;;;;;5075197;28;20216;-57
2021/06/03 06:45:52;;;;;;;5.60;3.30;;;21.70;99.90;;;;;;5075284;28;20217;-52
2021/06/03 06:48:19;;;;;;;4.10;3.67;;;21.80;99.90;;;;;;5075195;28;20205;-53
2021/06/03 06:50:49;;;;;;;4.97;3.30;;;21.90;99.90;;;;;;5074882;28;20201;-50
2021/06/03 06:53:16;;;;;;;5.40;3.40;;;21.80;99.90;;;;;;5076508;28;20201;-59
2021/06/03 06:55:42;;;;;;;4.60;3.50;;;21.90;99.90;;;;;;5077359;28;20240;-57
2021/06/03 06:58:09;;;;;;;3.70;3.30;;;21.90;99.90;;;;;;5076837;28;20585;-51
2021/06/03 07:00:38;;;;;;;7.03;3.73;;;22.00;99.90;;;;;;5075224;28;20193;-58
2021/06/03 07:03:07;;;;;;;7.27;4.00;;;22.10;99.90;;;;;;5075434;28;20208;-59
2021/06/03 07:05:33;;;;;;;6.10;3.60;;;22.10;99.90;;;;;;5077504;28;20221;-58
2021/06/03 07:08:01;;;;;;;4.20;3.60;;;22.10;99.90;;;;;;5076054;28;20558;-54
2021/06/03 07:10:27;;;;;;;4.53;3.60;;;22.10;99.90;;;;;;5074641;28;20216;-52
2021/06/03 07:12:53;;;;;;;4.33;3.60;;;22.30;99.90;;;;;;5074838;28;20212;-52
2021/06/03 07:15:20;;;;;;;4.37;3.47;;;22.30;99.90;;;;;;5074565;28;20270;-55
2021/06/03 07:17:46;;;;;;;3.93;3.30;;;22.20;99.90;;;;;;5074327;28;20274;-52
2021/06/03 07:20:15;;;;;;;6.33;3.90;;;22.30;99.90;;;;;;5071351;28;20565;-54
2021/06/03 07:22:43;;;;;;;4.60;3.30;;;22.30;99.90;;;;;;5074209;28;20213;-55
2021/06/03 07:25:13;;;;;;;7.27;4.10;;;22.40;99.90;;;;;;5074130;28;20208;-54
2021/06/03 07:27:40;;;;;;;7.20;4.20;;;22.30;99.90;;;;;;5073008;28;20665;-53
2021/06/03 07:30:09;;;;;;;5.63;3.87;;;22.50;99.90;;;;;;5073674;28;20216;-56
2021/06/03 07:32:35;;;;;;;11.17;4.20;;;22.50;99.90;;;;;;5073938;28;20201;-55
2021/06/03 07:35:02;;;;;;;4.37;3.70;;;22.80;99.90;;;;;;5073709;28;20691;-57
2021/06/03 07:37:29;;;;;;;5.93;3.83;;;23.20;99.90;;;;;;5074114;28;20232;-52
2021/06/03 07:39:56;;;;;;;7.43;3.90;;;23.50;99.90;;;;;;5073606;28;20238;-54
2021/06/03 07:42:23;;;;;;;8.80;4.03;;;23.70;99.90;;;;;;5073946;28;20205;-57
2021/06/03 07:44:49;;;;;;;6.40;3.70;;;23.80;99.90;;;;;;5073530;28;20681;-57
2021/06/03 07:47:16;;;;;;;6.73;3.87;;;24.00;99.90;;;;;;5073938;28;20307;-54
2021/06/03 07:49:42;;;;;;;8.50;3.60;;;24.00;99.90;;;;;;5073263;28;20243;-55
2021/06/03 07:52:09;;;;;;;6.20;4.00;;;24.10;99.90;;;;;;5073585;28;20673;-57
2021/06/03 07:54:36;;;;;;;5.30;4.00;;;24.20;99.90;;;;;;5073576;28;20217;-53
2021/06/03 07:57:03;;;;;;;6.30;4.03;;;24.30;99.90;;;;;;5073475;28;20229;-56
2021/06/03 07:59:30;;;;;;;6.03;3.93;;;24.20;99.90;;;;;;5073168;28;20660;-57
2021/06/03 08:01:57;;;;;;;5.90;4.30;;;24.40;99.90;;;;;;5073138;28;20209;-55
2021/06/03 08:04:23;;;;;;;10.07;4.83;;;24.50;99.90;;;;;;5073423;28;20213;-57
2021/06/03 08:06:49;;;;;;;4.97;4.27;;;24.60;99.90;;;;;;5073071;28;20236;-56
2021/06/03 08:09:16;;;;;;;5.93;4.07;;;24.50;99.90;;;;;;5073430;28;20678;-55
2021/06/03 08:11:44;;;;;;;6.73;4.30;;;24.50;99.90;;;;;;5072869;28;20673;-55
2021/06/03 08:14:11;;;;;;;8.67;4.30;;;24.30;99.90;;;;;;5073008;28;20209;-54
2021/06/03 08:16:39;;;;;;;6.87;4.50;;;24.10;99.90;;;;;;5072705;28;20229;-57
2021/06/03 08:19:05;;;;;;;6.50;4.30;;;24.00;99.90;;;;;;5072798;28;20201;-55
2021/06/03 08:21:33;;;;;;;6.73;4.57;;;24.10;99.90;;;;;;5072956;28;20205;-59
2021/06/03 08:23:59;;;;;;;7.93;4.07;;;24.30;99.90;;;;;;5073052;28;20305;-53
2021/06/03 08:26:28;;;;;;;7.07;4.57;;;24.40;99.90;;;;;;5073222;28;20225;-59
2021/06/03 08:28:55;;;;;;;6.30;4.27;;;24.20;99.90;;;;;;5073064;28;20205;-57
2021/06/03 08:31:21;;;;;;;5.60;4.47;;;24.10;99.90;;;;;;5072709;28;20237;-55
2021/06/03 08:33:48;;;;;;;8.07;4.40;;;24.00;99.90;;;;;;5073274;28;20258;-53
2021/06/03 08:36:15;;;;;;;6.70;4.10;;;24.10;99.90;;;;;;5072901;28;20229;-56
2021/06/03 08:38:41;;;;;;;10.70;4.10;;;24.00;99.90;;;;;;5073008;28;20208;-58
2021/06/03 08:41:07;;;;;;;8.13;4.43;;;24.20;99.90;;;;;;5072590;28;20205;-54
2021/06/03 08:43:34;;;;;;;7.23;4.40;;;24.20;99.90;;;;;;5073022;28;20209;-54
2021/06/03 08:46:01;;;;;;;8.70;4.57;;;24.20;99.90;;;;;;5072718;28;20224;-53
2021/06/03 08:48:28;;;;;;;8.90;4.40;;;24.20;99.90;;;;;;5073131;28;20204;-54
2021/06/03 08:50:58;;;;;;;6.73;4.37;;;24.40;99.90;;;;;;5072899;28;20201;-56
2021/06/03 08:53:25;;;;;;;5.63;4.17;;;24.10;99.90;;;;;;5073092;28;20201;-53
2021/06/03 08:58:37;;;;;;;7.13;5.00;;;23.40;99.90;;;;;;5072885;28;20208;-54
2021/06/03 09:01:05;;;;;;;7.43;4.70;;;23.10;99.90;;;;;;5072470;28;20235;-56
2021/06/03 09:03:32;;;;;;;5.77;4.17;;;22.90;99.90;;;;;;5072752;28;20205;-55
2021/06/03 09:06:01;;;;;;;7.83;4.70;;;22.90;99.90;;;;;;5072744;28;20225;-54
2021/06/03 09:08:28;;;;;;;7.70;4.73;;;22.90;99.90;;;;;;5072446;28;20213;-53
2021/06/03 09:10:56;;;;;;;6.27;4.50;;;22.70;99.90;;;;;;5071931;28;20205;-56
2021/06/03 09:13:25;;;;;;;7.17;4.10;;;22.70;99.90;;;;;;5072491;28;20213;-51
2021/06/03 09:15:54;;;;;;;9.70;4.80;;;22.70;99.90;;;;;;5072283;28;20233;-53
2021/06/03 09:18:29;;;;;;;8.13;5.03;;;22.80;99.90;;;;;;5072320;28;20230;-56
2021/06/03 09:20:57;;;;;;;6.87;4.50;;;22.70;99.90;;;;;;5072057;28;20204;-51
2021/06/03 09:23:32;;;;;;;8.33;4.83;;;22.80;99.90;;;;;;5072709;28;20250;-51
2021/06/03 09:25:59;;;;;;;7.40;4.33;;;22.80;99.90;;;;;;5072363;28;20232;-55
2021/06/03 09:28:28;;;;;;;5.70;4.90;;;23.00;99.90;;;;;;5072111;28;20201;-50
2021/06/03 09:31:04;;;;;;;6.07;4.20;;;23.20;99.90;;;;;;5072103;28;20209;-54
2021/06/03 09:33:49;;;;;;;7.90;4.17;;;23.20;99.90;;;;;;5072322;28;20254;-57
2021/06/03 09:36:18;;;;;;;7.83;5.17;;;23.10;99.90;;;;;;5072346;28;20642;-56
2021/06/03 09:39:00;;;;;;;9.87;4.60;;;23.10;99.90;;;;;;5072173;28;20209;-52
2021/06/03 09:41:29;;;;;;;7.33;4.53;;;23.30;99.90;;;;;;5071921;28;20205;-56
2021/06/03 09:44:17;;;;;;;5.57;4.50;;;23.30;99.90;;;;;;5072299;28;20215;-56
2021/06/03 09:46:46;;;;;;;8.00;4.60;;;23.40;99.90;;;;;;5064733;28;20221;-51
2021/06/03 09:49:31;;;;;;;7.37;4.00;;;23.50;99.90;;;;;;5071470;28;20208;-63
2021/06/03 09:52:00;;;;;;;6.90;4.47;;;23.80;99.90;;;;;;5071298;28;20526;-63
2021/06/03 09:54:28;;;;;;;5.67;4.97;;;23.50;99.90;;;;;;5071473;28;20216;-63
2021/06/03 09:56:57;;;;;;;8.93;4.73;;;23.30;99.90;;;;;;5069846;22;20237;-64
2021/06/03 09:59:26;;;;;;;6.77;4.27;;;23.40;99.90;;;;;;5051659;28;20205;-64
2021/06/03 10:01:55;;;;;;;7.00;5.03;;;23.60;99.90;;;;;;5051441;28;20236;-64
2021/06/03 10:04:30;;;;;;;8.53;4.57;;;23.80;99.90;;;;;;5051351;28;20213;-64
2021/06/03 10:07:06;;;;;;;6.03;4.70;;;23.80;99.90;;;;;;5051120;28;20228;-62
2021/06/03 10:09:40;;;;;;;7.80;4.80;;;23.80;99.90;;;;;;5051725;28;20223;-63
2021/06/03 10:12:08;;;;;;;8.03;4.93;;;23.80;99.90;;;;;;5051389;28;20236;-62
2021/06/03 10:14:35;;;;;;;10.47;5.00;;;23.60;99.90;;;;;;5051531;28;20210;-63
2021/06/03 10:17:13;;;;;;;7.00;4.80;;;23.40;99.90;;;;;;5051104;28;20229;-63
2021/06/03 10:19:40;;;;;;;9.70;5.30;;;23.40;99.90;;;;;;5051217;28;20772;-63
2021/06/03 10:22:12;;;;;;;7.57;4.67;;;23.40;99.90;;;;;;5051402;28;20209;-62
2021/06/03 10:24:56;;;;;;;6.27;4.67;;;23.30;99.90;;;;;;5051723;28;20206;-62
2021/06/03 10:27:24;;;;;;;8.00;5.17;;;23.60;99.90;;;;;;5049231;28;20569;-63
2021/06/03 10:29:51;;;;;;;7.63;5.53;;;23.80;99.90;;;;;;5051020;28;20212;-63
2021/06/03 10:32:18;;;;;;;8.83;5.03;;;23.90;99.90;;;;;;5051434;28;20569;-64
2021/06/03 10:34:45;;;;;;;8.50;4.70;;;23.90;99.90;;;;;;5051375;28;20589;-65
2021/06/03 10:37:12;;;;;;;10.03;5.37;;;24.20;99.90;;;;;;5050739;28;20234;-62
2021/06/03 10:39:39;;;;;;;7.97;5.50;;;24.50;99.90;;;;;;5050994;28;20582;-62
2021/06/03 10:42:08;;;;;;;7.27;5.27;;;24.10;99.90;;;;;;5050989;28;20214;-58
2021/06/03 10:44:36;;;;;;;10.37;5.33;;;24.30;99.90;;;;;;5050812;28;20217;-62
2021/06/03 10:47:02;;;;;;;8.87;5.07;;;24.60;99.90;;;;;;5101127;22;20233;-62
2021/06/03 10:49:33;;;;;;;5.93;5.00;;;24.30;99.90;;;;;;5051163;28;20205;-60
2021/06/03 10:52:01;;;;;;;6.03;5.00;;;24.30;99.90;;;;;;5050511;28;20575;-61
2021/06/03 10:54:39;;;;;;;6.87;4.80;;;24.20;99.90;;;;;;5051108;28;20221;-63
2021/06/03 10:57:07;;;;;;;8.53;5.30;;;24.40;99.90;;;;;;5050501;28;20229;-64
2021/06/03 10:59:36;;;;;;;12.57;5.50;;;24.10;99.90;;;;;;5053436;28;20614;-64
2021/06/03 11:02:03;;;;;;;6.63;5.03;;;24.20;99.90;;;;;;5053991;28;20238;-64
2021/06/03 11:04:31;;;;;;;6.47;4.93;;;24.40;99.90;;;;;;5055095;28;20576;-64
2021/06/03 11:06:57;;;;;;;8.03;5.27;;;24.20;99.90;;;;;;5057772;28;20221;-64
2021/06/03 11:09:28;;;;;;;6.70;4.90;;;24.10;99.90;;;;;;5066331;28;20662;-63
2021/06/03 11:12:10;;;;;;;7.93;5.33;;;24.00;99.90;;;;;;5064920;28;20217;-62
2021/06/03 11:15:05;;;;;;;6.90;5.17;;;24.10;99.90;;;;;;5055490;28;20205;-62
2021/06/03 11:18:02;;;;;;;7.53;5.07;;;24.20;99.90;;;;;;5054131;28;20229;-63
2021/06/03 11:20:43;;;;;;;6.57;5.03;;;24.00;99.90;;;;;;4992892;28;20208;-62
2021/06/03 11:23:44;;;;;;;7.37;4.73;;;23.90;99.90;;;;;;5045609;28;20208;-62
2021/06/03 11:26:30;;;;;;;7.07;4.90;;;24.00;99.90;;;;;;5053951;28;20229;-62
2021/06/03 11:29:09;;;;;;;7.43;4.63;;;23.80;99.90;;;;;;5054358;28;20300;-62
2021/06/03 11:31:36;;;;;;;7.80;4.53;;;23.90;99.90;;;;;;5054229;28;20437;-62
2021/06/03 11:34:07;;;;;;;6.93;4.80;;;23.90;99.90;;;;;;5054116;28;20210;-61
2021/06/03 11:36:34;;;;;;;7.10;4.90;;;23.90;99.90;;;;;;5053594;28;20225;-61
2021/06/03 11:39:03;;;;;;;6.97;5.30;;;23.80;99.90;;;;;;5054473;28;20220;-61
2021/06/03 11:41:35;;;;;;;9.70;5.20;;;23.30;99.90;;;;;;5053722;28;20202;-63
2021/06/03 11:44:11;;;;;;;7.80;5.20;;;23.30;99.90;;;;;;5053938;28;20240;-63
2021/06/03 11:47:00;;;;;;;5.47;4.60;;;23.30;99.90;;;;;;5053222;28;20236;-62
2021/06/03 11:49:39;;;;;;;7.40;4.67;;;23.40;99.90;;;;;;5054047;28;20233;-65
2021/06/03 11:52:10;;;;;;;6.43;3.73;;;23.50;99.90;;;;;;5053613;28;20221;-63
2021/06/03 11:54:54;;;;;;;6.03;3.80;;;23.50;99.90;;;;;;5053710;28;20212;-62
2021/06/03 11:57:21;;;;;;;4.60;3.77;;;23.30;99.90;;;;;;5053112;28;20706;-62
2021/06/03 11:59:56;;;;;;;6.03;3.63;;;23.30;99.90;;;;;;5053603;28;20213;-62
2021/06/03 12:02:30;;;;;;;7.33;3.90;;;23.40;99.90;;;;;;5052970;28;20208;-64
2021/06/03 12:05:19;;;;;;;5.73;3.40;;;23.60;99.90;;;;;;5048856;28;20686;-64
2021/06/03 12:07:46;;;;;;;4.33;2.60;;;23.70;99.90;;;;;;5052779;28;20304;-63
2021/06/03 12:10:15;;;;;;;3.10;2.80;;;23.80;99.90;;;;;;5052783;28;20658;-64
2021/06/03 12:12:43;;;;;;;3.07;2.70;;;23.90;99.90;;;;;;5053316;28;20205;-63
2021/06/03 12:15:23;;;;;;;4.77;3.47;;;23.80;99.90;;;;;;5052614;28;20228;-64
2021/06/03 12:17:54;;;;;;;6.47;3.33;;;23.70;99.90;;;;;;5052794;28;20230;-64
2021/06/03 12:20:21;;;;;;;6.47;3.57;;;23.60;99.90;;;;;;5052779;28;20217;-64
2021/06/03 12:22:47;;;;;;;4.63;3.70;;;23.80;99.90;;;;;;5053197;28;20214;-63
2021/06/03 12:25:13;;;;;;;4.73;3.53;;;24.00;99.90;;;;;;5052842;28;20209;-63
2021/06/03 12:27:42;;;;;;;3.83;3.53;;;24.10;99.90;;;;;;5052772;28;20255;-63
2021/06/03 12:30:16;;;;;;;6.93;4.03;;;24.30;99.90;;;;;;5052882;28;20209;-63
2021/06/03 12:32:59;;;;;;;3.90;3.33;;;24.60;99.90;;;;;;5052803;28;20209;-64
2021/06/03 12:35:34;;;;;;;5.53;3.67;;;24.80;99.90;;;;;;5052797;28;20233;-64
2021/06/03 12:38:01;;;;;;;4.87;3.87;;;24.70;99.90;;;;;;5052591;28;20253;-64
2021/06/03 12:40:28;;;;;;;4.47;3.67;;;24.90;99.90;;;;;;5052506;28;20206;-63
2021/06/03 12:43:01;;;;;;;5.47;4.10;;;24.60;99.90;;;;;;5052778;28;20674;-65
2021/06/03 12:45:30;;;;;;;6.50;3.87;;;24.90;99.90;;;;;;5052345;28;20230;-65
2021/06/03 12:47:57;;;;;;;4.50;3.70;;;25.30;99.90;;;;;;5052134;28;20270;-64
2021/06/03 12:50:23;;;;;;;6.07;3.70;;;25.60;99.90;;;;;;5052360;28;20202;-65
2021/06/03 12:52:50;;;;;;;4.17;3.37;;;25.70;99.90;;;;;;5052617;28;20206;-64
2021/06/03 12:55:19;;;;;;;5.27;3.50;;;25.80;99.90;;;;;;5052309;28;20209;-65